createdAt,value
2018-04-13T00:00:23.343Z,15.91
2018-04-13T00:01:26.838Z,15.89
2018-04-13T00:02:29.902Z,15.88
2018-04-13T00:03:33.030Z,15.88
2018-04-13T00:04:36.081Z,15.86
2018-04-13T00:05:39.190Z,15.85
2018-04-13T00:06:42.271Z,15.84
2018-04-13T00:07:45.422Z,15.82
2018-04-13T00:08:48.464Z,15.83
2018-04-13T00:09:51.540Z,15.81
2018-04-13T00:10:54.635Z,15.79
2018-04-13T00:11:57.682Z,15.79
2018-04-13T00:13:00.835Z,15.77
2018-04-13T00:14:03.866Z,15.76
2018-04-13T00:15:07.083Z,15.75
2018-04-13T00:16:10.625Z,15.74
2018-04-13T00:17:13.644Z,15.73
2018-04-13T00:18:16.752Z,15.71
2018-04-13T00:19:19.832Z,15.70
2018-04-13T00:20:22.886Z,15.69
2018-04-13T00:21:25.934Z,15.67
2018-04-13T00:22:28.965Z,15.66
2018-04-13T00:23:32.043Z,15.65
2018-04-13T00:24:35.121Z,15.64
2018-04-13T00:25:38.247Z,15.63
2018-04-13T00:26:41.282Z,15.62
2018-04-13T00:27:44.324Z,15.61
2018-04-13T00:28:47.438Z,15.60
2018-04-13T00:29:50.900Z,15.59
2018-04-13T00:30:54.007Z,15.58
2018-04-13T00:31:57.036Z,15.57
2018-04-13T00:33:00.112Z,15.56
2018-04-13T00:34:03.259Z,15.54
2018-04-13T00:35:06.292Z,15.53
2018-04-13T00:36:09.332Z,15.53
2018-04-13T00:37:12.426Z,15.52
2018-04-13T00:38:15.479Z,15.50
2018-04-13T00:39:18.632Z,15.50
2018-04-13T00:40:21.787Z,15.48
2018-04-13T00:41:24.837Z,15.47
2018-04-13T00:42:27.867Z,15.46
2018-04-13T00:43:30.895Z,15.45
2018-04-13T00:44:34.602Z,15.44
2018-04-13T00:45:37.834Z,15.42
2018-04-13T00:46:40.931Z,15.41
2018-04-13T00:47:44.024Z,15.40
2018-04-13T00:48:47.055Z,15.39
2018-04-13T00:49:50.133Z,15.38
2018-04-13T00:50:53.367Z,15.37
2018-04-13T00:51:56.696Z,15.35
2018-04-13T00:53:11.463Z,15.34
2018-04-13T00:54:14.546Z,15.30
2018-04-13T00:55:17.635Z,15.30
2018-04-13T00:56:20.665Z,15.29
2018-04-13T00:57:23.815Z,15.28
2018-04-13T00:58:26.930Z,15.27
2018-04-13T00:59:30.009Z,15.27
2018-04-13T01:00:33.141Z,15.26
2018-04-13T01:01:36.195Z,15.25
2018-04-13T01:02:39.271Z,15.24
2018-04-13T01:03:42.443Z,15.23
2018-04-13T01:04:45.535Z,15.23
2018-04-13T01:05:48.615Z,15.22
2018-04-13T01:06:51.894Z,15.21
2018-04-13T01:07:54.999Z,15.20
2018-04-13T01:08:58.112Z,15.19
2018-04-13T01:10:01.146Z,15.19
2018-04-13T01:11:04.312Z,15.18
2018-04-13T01:12:07.422Z,15.17
2018-04-13T01:13:10.610Z,15.16
2018-04-13T01:14:13.737Z,15.15
2018-04-13T01:15:16.828Z,15.14
2018-04-13T01:16:19.932Z,15.14
2018-04-13T01:17:23.081Z,15.13
2018-04-13T01:18:26.359Z,15.13
2018-04-13T01:19:29.669Z,15.12
2018-04-13T01:20:32.726Z,15.11
2018-04-13T01:21:35.784Z,15.10
2018-04-13T01:22:38.862Z,15.10
2018-04-13T01:23:41.908Z,15.09
2018-04-13T01:24:45.019Z,15.08
2018-04-13T01:25:48.058Z,15.07
2018-04-13T01:26:51.149Z,15.07
2018-04-13T01:27:54.478Z,15.06
2018-04-13T01:28:57.577Z,15.05
2018-04-13T01:30:00.714Z,15.04
2018-04-13T01:31:03.869Z,15.03
2018-04-13T01:32:07.418Z,15.02
2018-04-13T01:33:10.467Z,15.01
2018-04-13T01:34:13.762Z,15.01
2018-04-13T01:35:16.958Z,15.00
2018-04-13T01:36:20.020Z,14.99
2018-04-13T01:37:23.145Z,14.98
2018-04-13T01:38:26.462Z,14.97
2018-04-13T01:39:29.553Z,14.96
2018-04-13T01:40:32.611Z,14.95
2018-04-13T01:41:35.706Z,14.94
2018-04-13T01:42:39.035Z,14.93
2018-04-13T01:43:42.087Z,14.92
2018-04-13T01:44:45.343Z,14.91
2018-04-13T01:45:48.528Z,14.91
2018-04-13T01:46:51.839Z,14.89
2018-04-13T01:47:55.002Z,14.88
2018-04-13T01:48:58.049Z,14.88
2018-04-13T01:50:01.147Z,14.87
2018-04-13T01:51:04.501Z,14.85
2018-04-13T01:52:07.579Z,14.85
2018-04-13T01:53:10.671Z,14.84
2018-04-13T01:54:13.804Z,14.82
2018-04-13T01:55:17.232Z,14.82
2018-04-13T01:56:20.305Z,14.80
2018-04-13T01:57:23.345Z,14.80
2018-04-13T01:58:26.680Z,14.79
2018-04-13T01:59:29.753Z,14.78
2018-04-13T02:00:32.813Z,14.77
2018-04-13T02:01:36.192Z,14.76
2018-04-13T02:02:39.226Z,14.75
2018-04-13T02:03:42.304Z,14.74
2018-04-13T02:04:45.365Z,14.74
2018-04-13T02:05:48.473Z,14.73
2018-04-13T02:06:51.534Z,14.71
2018-04-13T02:07:54.648Z,14.71
2018-04-13T02:08:57.794Z,14.70
2018-04-13T02:10:00.827Z,14.69
2018-04-13T02:11:03.995Z,14.69
2018-04-13T02:12:07.066Z,14.68
2018-04-13T02:13:10.171Z,14.66
2018-04-13T02:14:13.679Z,14.65
2018-04-13T02:15:16.920Z,14.64
2018-04-13T02:16:20.168Z,14.63
2018-04-13T02:17:23.258Z,14.62
2018-04-13T02:18:26.779Z,14.61
2018-04-13T02:19:29.820Z,14.60
2018-04-13T02:20:32.922Z,14.58
2018-04-13T02:21:36.228Z,14.57
2018-04-13T02:22:39.326Z,14.56
2018-04-13T02:23:42.369Z,14.55
2018-04-13T02:24:45.452Z,14.54
2018-04-13T02:25:48.561Z,14.53
2018-04-13T02:26:51.610Z,14.52
2018-04-13T02:27:54.731Z,14.51
2018-04-13T02:28:57.979Z,14.50
2018-04-13T02:30:01.074Z,14.49
2018-04-13T02:31:04.135Z,14.48
2018-04-13T02:32:07.275Z,14.47
2018-04-13T02:33:10.439Z,14.46
2018-04-13T02:34:13.729Z,14.44
2018-04-13T02:35:16.843Z,14.44
2018-04-13T02:36:19.899Z,14.42
2018-04-13T02:37:22.973Z,14.41
2018-04-13T02:38:26.251Z,14.41
2018-04-13T02:39:29.293Z,14.39
2018-04-13T02:40:32.370Z,14.38
2018-04-13T02:41:35.422Z,14.37
2018-04-13T02:42:39.024Z,14.36
2018-04-13T02:43:42.292Z,14.34
2018-04-13T02:44:45.347Z,14.34
2018-04-13T02:45:48.767Z,14.33
2018-04-13T02:46:51.846Z,14.32
2018-04-13T02:47:54.943Z,14.31
2018-04-13T02:48:58.014Z,14.30
2018-04-13T02:50:01.097Z,14.29
2018-04-13T02:51:04.372Z,14.28
2018-04-13T02:52:07.457Z,14.27
2018-04-13T02:53:10.502Z,14.25
2018-04-13T02:54:13.588Z,14.25
2018-04-13T02:55:16.702Z,14.23
2018-04-13T02:57:29.064Z,14.20
2018-04-13T02:58:32.127Z,14.19
2018-04-13T02:59:35.186Z,14.19
2018-04-13T03:00:38.647Z,14.18
2018-04-13T03:01:41.762Z,14.17
2018-04-13T03:02:45.079Z,14.17
2018-04-13T03:03:48.186Z,14.16
2018-04-13T03:04:51.239Z,14.15
2018-04-13T03:05:54.415Z,14.15
2018-04-13T03:06:57.521Z,14.13
2018-04-13T03:08:00.624Z,14.13
2018-04-13T03:09:03.696Z,14.12
2018-04-13T03:10:06.805Z,14.12
2018-04-13T03:11:09.903Z,14.10
2018-04-13T03:12:12.994Z,14.11
2018-04-13T03:13:16.044Z,14.09
2018-04-13T03:14:19.152Z,14.08
2018-04-13T03:15:22.290Z,14.08
2018-04-13T03:16:25.335Z,14.07
2018-04-13T03:17:28.393Z,14.05
2018-04-13T03:18:31.456Z,14.05
2018-04-13T03:19:34.555Z,14.05
2018-04-13T03:20:37.585Z,14.03
2018-04-13T03:21:40.718Z,14.02
2018-04-13T03:22:44.127Z,14.02
2018-04-13T03:23:47.254Z,14.00
2018-04-13T03:24:50.295Z,14.00
2018-04-13T03:25:53.373Z,14.00
2018-04-13T03:26:56.712Z,13.98
2018-04-13T03:27:59.868Z,13.97
2018-04-13T03:29:02.898Z,13.97
2018-04-13T03:30:06.266Z,13.96
2018-04-13T03:31:09.411Z,13.95
2018-04-13T03:32:12.502Z,13.95
2018-04-13T03:33:15.705Z,13.94
2018-04-13T03:34:18.783Z,13.94
2018-04-13T03:35:22.061Z,13.93
2018-04-13T03:36:25.113Z,13.92
2018-04-13T03:37:28.158Z,13.91
2018-04-13T03:38:31.235Z,13.90
2018-04-13T03:39:34.618Z,13.89
2018-04-13T03:40:37.663Z,13.88
2018-04-13T03:41:40.710Z,13.88
2018-04-13T03:42:43.777Z,13.87
2018-04-13T03:43:46.842Z,13.86
2018-04-13T03:44:49.894Z,13.86
2018-04-13T03:45:53.027Z,13.84
2018-04-13T03:46:56.126Z,13.84
2018-04-13T03:47:59.208Z,13.84
2018-04-13T03:49:02.287Z,13.82
2018-04-13T03:50:05.473Z,13.83
2018-04-13T03:51:09.479Z,13.82
2018-04-13T03:52:12.792Z,13.81
2018-04-13T03:53:15.964Z,13.81
2018-04-13T03:54:19.312Z,13.81
2018-04-13T03:55:22.821Z,13.79
2018-04-13T03:56:25.879Z,13.79
2018-04-13T03:57:29.037Z,13.78
2018-04-13T03:58:32.130Z,13.77
2018-04-13T03:59:35.218Z,13.77
2018-04-13T04:00:38.279Z,13.76
2018-04-13T04:01:41.368Z,13.76
2018-04-13T04:02:44.434Z,13.76
2018-04-13T04:03:47.533Z,13.75
2018-04-13T04:04:50.600Z,13.74
2018-04-13T04:05:53.831Z,13.74
2018-04-13T04:06:56.906Z,13.73
2018-04-13T04:07:59.964Z,13.72
2018-04-13T04:09:03.055Z,13.72
2018-04-13T04:10:06.238Z,13.71
2018-04-13T04:11:09.292Z,13.70
2018-04-13T04:12:12.397Z,13.70
2018-04-13T04:13:15.520Z,13.69
2018-04-13T04:14:18.581Z,13.68
2018-04-13T04:15:21.675Z,13.68
2018-04-13T04:16:24.758Z,13.68
2018-04-13T04:17:27.875Z,13.67
2018-04-13T04:18:31.255Z,13.68
2018-04-13T04:19:45.935Z,13.66
2018-04-13T04:21:00.762Z,13.63
2018-04-13T04:22:15.618Z,13.61
2018-04-13T04:23:30.515Z,13.58
2018-04-13T04:24:45.626Z,13.56
2018-04-13T04:26:00.352Z,13.55
2018-04-13T04:27:03.406Z,13.54
2018-04-13T04:28:06.450Z,13.55
2018-04-13T04:29:09.563Z,13.56
2018-04-13T04:30:12.638Z,13.57
2018-04-13T04:31:15.996Z,13.58
2018-04-13T04:32:19.083Z,13.58
2018-04-13T04:33:22.133Z,13.58
2018-04-13T04:34:25.287Z,13.59
2018-04-13T04:35:28.346Z,13.60
2018-04-13T04:36:31.456Z,13.62
2018-04-13T04:37:34.610Z,13.65
2018-04-13T04:38:37.681Z,13.68
2018-04-13T04:39:40.722Z,13.71
2018-04-13T04:40:43.770Z,13.75
2018-04-13T04:41:46.846Z,13.78
2018-04-13T04:42:49.944Z,13.81
2018-04-13T04:43:53.068Z,13.84
2018-04-13T04:44:56.223Z,13.87
2018-04-13T04:45:59.258Z,13.90
2018-04-13T04:47:02.350Z,13.93
2018-04-13T04:48:05.444Z,13.94
2018-04-13T04:49:08.487Z,13.97
2018-04-13T04:50:11.526Z,13.99
2018-04-13T04:51:14.810Z,14.00
2018-04-13T04:52:17.923Z,14.03
2018-04-13T04:53:21.041Z,14.04
2018-04-13T04:54:24.588Z,14.06
2018-04-13T04:55:27.722Z,14.08
2018-04-13T04:56:30.869Z,14.08
2018-04-13T04:57:34.221Z,14.09
2018-04-13T04:58:37.435Z,14.10
2018-04-13T04:59:40.580Z,14.11
2018-04-13T05:00:43.666Z,14.13
2018-04-13T05:01:46.767Z,14.14
2018-04-13T05:02:49.850Z,14.15
2018-04-13T05:03:52.902Z,14.15
2018-04-13T05:04:56.012Z,14.17
2018-04-13T05:05:59.063Z,14.18
2018-04-13T05:07:02.107Z,14.19
2018-04-13T05:08:05.220Z,14.19
2018-04-13T05:09:08.262Z,14.21
2018-04-13T05:10:11.407Z,14.22
2018-04-13T05:11:14.492Z,14.23
2018-04-13T05:12:17.576Z,14.23
2018-04-13T05:13:20.704Z,14.24
2018-04-13T05:14:23.953Z,14.24
2018-04-13T05:15:27.049Z,14.25
2018-04-13T05:16:30.159Z,14.25
2018-04-13T05:17:33.234Z,14.26
2018-04-13T05:18:36.361Z,14.27
2018-04-13T05:19:39.498Z,14.27
2018-04-13T05:20:42.632Z,14.28
2018-04-13T05:21:45.703Z,14.30
2018-04-13T05:22:48.749Z,14.30
2018-04-13T05:23:51.862Z,14.32
2018-04-13T05:24:55.489Z,14.32
2018-04-13T05:25:58.586Z,14.33
2018-04-13T05:27:01.645Z,14.34
2018-04-13T05:28:04.706Z,14.35
2018-04-13T05:29:07.857Z,14.37
2018-04-13T05:30:11.026Z,14.38
2018-04-13T05:31:14.434Z,14.38
2018-04-13T05:32:17.732Z,14.39
2018-04-13T05:33:21.287Z,14.41
2018-04-13T05:34:24.470Z,14.41
2018-04-13T05:35:27.562Z,14.42
2018-04-13T05:36:30.647Z,14.44
2018-04-13T05:37:33.675Z,14.45
2018-04-13T05:38:37.022Z,14.46
2018-04-13T05:39:40.178Z,14.46
2018-04-13T05:40:43.279Z,14.47
2018-04-13T05:41:46.431Z,14.48
2018-04-13T05:42:49.626Z,14.49
2018-04-13T05:43:52.736Z,14.50
2018-04-13T05:44:55.809Z,14.51
2018-04-13T05:45:58.954Z,14.51
2018-04-13T05:47:02.000Z,14.52
2018-04-13T05:48:05.328Z,14.53
2018-04-13T05:49:08.399Z,14.53
2018-04-13T05:50:11.494Z,14.53
2018-04-13T05:51:14.939Z,14.53
2018-04-13T05:52:18.119Z,14.55
2018-04-13T05:53:21.294Z,14.54
2018-04-13T05:54:24.363Z,14.55
2018-04-13T05:55:27.539Z,14.56
2018-04-13T05:56:30.612Z,14.55
2018-04-13T05:57:33.685Z,14.56
2018-04-13T05:58:36.817Z,14.57
2018-04-13T05:59:39.861Z,14.59
2018-04-13T06:00:43.451Z,14.59
2018-04-13T06:01:46.789Z,14.59
2018-04-13T06:02:49.943Z,14.58
2018-04-13T06:03:53.026Z,14.57
2018-04-13T06:04:56.090Z,14.56
2018-04-13T06:05:59.219Z,14.53
2018-04-13T06:07:02.324Z,14.50
2018-04-13T06:08:05.387Z,14.48
2018-04-13T06:09:08.508Z,14.48
2018-04-13T06:10:11.631Z,14.47
2018-04-13T06:11:14.854Z,14.47
2018-04-13T06:12:17.900Z,14.46
2018-04-13T06:13:20.981Z,14.46
2018-04-13T06:14:23.998Z,14.47
2018-04-13T06:15:27.129Z,14.47
2018-04-13T06:16:30.245Z,14.48
2018-04-13T06:17:33.338Z,14.48
2018-04-13T06:18:36.458Z,14.49
2018-04-13T06:19:39.555Z,14.50
2018-04-13T06:20:42.691Z,14.51
2018-04-13T06:21:45.863Z,14.51
2018-04-13T06:22:48.908Z,14.51
2018-04-13T06:23:51.992Z,14.52
2018-04-13T06:24:55.039Z,14.52
2018-04-13T06:25:58.085Z,14.53
2018-04-13T06:27:01.257Z,14.53
2018-04-13T06:28:04.404Z,14.54
2018-04-13T06:29:07.515Z,14.55
2018-04-13T06:30:10.604Z,14.57
2018-04-13T06:31:13.686Z,14.59
2018-04-13T06:32:16.803Z,14.62
2018-04-13T06:33:19.900Z,14.64
2018-04-13T06:34:23.066Z,14.67
2018-04-13T06:35:26.272Z,14.69
2018-04-13T06:36:29.551Z,14.71
2018-04-13T06:37:32.963Z,14.73
2018-04-13T06:38:36.151Z,14.75
2018-04-13T06:39:39.261Z,14.78
2018-04-13T06:40:42.362Z,14.80
2018-04-13T06:41:45.422Z,14.81
2018-04-13T06:42:48.506Z,14.82
2018-04-13T06:43:51.574Z,14.84
2018-04-13T06:44:54.734Z,14.85
2018-04-13T06:45:57.833Z,14.87
2018-04-13T06:47:00.950Z,14.89
2018-04-13T06:48:04.061Z,14.90
2018-04-13T06:49:07.101Z,14.92
2018-04-13T06:50:10.158Z,14.95
2018-04-13T06:51:13.230Z,14.97
2018-04-13T06:52:16.473Z,14.99
2018-04-13T06:53:19.566Z,15.00
2018-04-13T06:54:22.694Z,15.02
2018-04-13T06:55:25.897Z,15.03
2018-04-13T06:56:28.989Z,15.05
2018-04-13T06:57:32.069Z,15.06
2018-04-13T06:58:35.141Z,15.08
2018-04-13T06:59:38.267Z,15.10
2018-04-13T07:00:41.370Z,15.11
2018-04-13T07:01:44.424Z,15.13
2018-04-13T07:02:47.462Z,15.15
2018-04-13T07:03:50.543Z,15.17
2018-04-13T07:04:53.599Z,15.18
2018-04-13T07:05:56.737Z,15.20
2018-04-13T07:06:59.918Z,15.21
2018-04-13T07:08:03.036Z,15.23
2018-04-13T07:09:06.143Z,15.24
2018-04-13T07:10:09.315Z,15.26
2018-04-13T07:11:12.409Z,15.28
2018-04-13T07:12:15.546Z,15.29
2018-04-13T07:13:18.667Z,15.30
2018-04-13T07:14:21.727Z,15.31
2018-04-13T07:15:25.128Z,15.33
2018-04-13T07:16:28.209Z,15.34
2018-04-13T07:17:31.280Z,15.36
2018-04-13T07:18:34.371Z,15.38
2018-04-13T07:19:37.520Z,15.41
2018-04-13T07:20:40.746Z,15.43
2018-04-13T07:21:43.792Z,15.44
2018-04-13T07:22:47.143Z,15.46
2018-04-13T07:23:50.952Z,15.48
2018-04-13T07:24:54.069Z,15.50
2018-04-13T07:25:57.301Z,15.52
2018-04-13T07:27:00.327Z,15.55
2018-04-13T07:28:03.370Z,15.57
2018-04-13T07:29:06.527Z,15.59
2018-04-13T07:30:09.663Z,15.60
2018-04-13T07:31:12.739Z,15.62
2018-04-13T07:32:15.783Z,15.65
2018-04-13T07:33:18.846Z,15.68
2018-04-13T07:34:22.629Z,15.71
2018-04-13T07:35:25.054Z,15.73
2018-04-13T07:36:28.123Z,15.74
2018-04-13T07:37:31.306Z,15.75
2018-04-13T07:38:34.295Z,15.77
2018-04-13T07:39:37.502Z,15.79
2018-04-13T07:40:40.532Z,15.80
2018-04-13T07:41:43.591Z,15.81
2018-04-13T07:42:47.090Z,15.81
2018-04-13T07:43:50.043Z,15.83
2018-04-13T07:44:53.557Z,15.84
2018-04-13T07:45:56.472Z,15.84
2018-04-13T07:46:59.522Z,15.85
2018-04-13T07:48:02.563Z,15.87
2018-04-13T07:49:05.676Z,15.87
2018-04-13T07:50:08.849Z,15.88
2018-04-13T07:51:12.218Z,15.89
2018-04-13T07:52:15.273Z,15.91
2018-04-13T07:53:19.173Z,15.93
2018-04-13T07:54:22.199Z,15.93
2018-04-13T07:55:25.270Z,15.95
2018-04-13T07:56:28.350Z,15.96
2018-04-13T07:57:31.406Z,15.98
2018-04-13T07:58:34.514Z,15.99
2018-04-13T07:59:37.589Z,16.00
2018-04-13T08:00:40.708Z,16.03
2018-04-13T08:01:43.862Z,16.03
2018-04-13T08:02:46.906Z,16.05
2018-04-13T08:03:50.177Z,16.07
2018-04-13T08:04:53.237Z,16.09
2018-04-13T08:05:56.296Z,16.11
2018-04-13T08:06:59.414Z,16.13
2018-04-13T08:08:02.471Z,16.15
2018-04-13T08:09:06.253Z,16.17
2018-04-13T08:10:09.320Z,16.18
2018-04-13T08:11:12.536Z,16.19
2018-04-13T08:12:15.626Z,16.21
2018-04-13T08:13:18.981Z,16.25
2018-04-13T08:14:21.762Z,16.28
2018-04-13T08:15:24.805Z,16.30
2018-04-13T08:16:27.889Z,16.34
2018-04-13T08:17:31.086Z,16.37
2018-04-13T08:18:34.137Z,16.41
2018-04-13T08:19:37.223Z,16.44
2018-04-13T08:20:40.570Z,16.47
2018-04-13T08:21:43.611Z,16.51
2018-04-13T08:22:46.792Z,16.53
2018-04-13T08:23:49.936Z,16.55
2018-04-13T08:24:53.101Z,16.58
2018-04-13T08:25:56.199Z,16.60
2018-04-13T08:26:59.290Z,16.60
2018-04-13T08:28:02.410Z,16.62
2018-04-13T08:29:05.696Z,16.63
2018-04-13T08:30:09.267Z,16.64
2018-04-13T08:31:12.316Z,16.65
2018-04-13T08:32:15.453Z,16.66
2018-04-13T08:33:18.519Z,16.67
2018-04-13T08:34:21.667Z,16.67
2018-04-13T08:35:24.729Z,16.68
2018-04-13T08:36:27.825Z,16.68
2018-04-13T08:37:31.003Z,16.68
2018-04-13T08:38:34.354Z,16.68
2018-04-13T08:39:37.566Z,16.69
2018-04-13T08:40:40.730Z,16.70
2018-04-13T08:41:43.944Z,16.71
2018-04-13T08:42:46.978Z,16.72
2018-04-13T08:43:50.102Z,16.72
2018-04-13T08:44:53.176Z,16.72
2018-04-13T08:45:56.244Z,16.73
2018-04-13T08:46:59.527Z,16.74
2018-04-13T08:48:02.915Z,16.75
2018-04-13T08:49:06.157Z,16.75
2018-04-13T08:50:09.119Z,16.76
2018-04-13T08:51:12.221Z,16.77
2018-04-13T08:52:15.306Z,16.77
2018-04-13T08:53:18.574Z,16.78
2018-04-13T08:54:21.756Z,16.79
2018-04-13T08:55:24.841Z,16.80
2018-04-13T08:56:27.932Z,16.82
2018-04-13T08:57:30.992Z,16.84
2018-04-13T08:58:34.035Z,16.85
2018-04-13T08:59:37.165Z,16.87
2018-04-13T09:00:40.248Z,16.89
2018-04-13T09:01:43.413Z,16.90
2018-04-13T09:02:46.567Z,16.92
2018-04-13T09:03:49.627Z,16.95
2018-04-13T09:04:52.867Z,16.96
2018-04-13T09:05:55.941Z,16.99
2018-04-13T09:06:59.032Z,17.01
2018-04-13T09:08:02.121Z,17.04
2018-04-13T09:09:05.244Z,17.06
2018-04-13T09:10:08.592Z,17.08
2018-04-13T09:11:11.702Z,17.13
2018-04-13T09:12:14.840Z,17.15
2018-04-13T09:13:17.882Z,17.19
2018-04-13T09:14:20.928Z,17.23
2018-04-13T09:15:24.051Z,17.27
2018-04-13T09:16:27.139Z,17.32
2018-04-13T09:17:30.201Z,17.37
2018-04-13T09:18:33.482Z,17.41
2018-04-13T09:19:36.656Z,17.45
2018-04-13T09:20:39.751Z,17.48
2018-04-13T09:21:42.873Z,17.52
2018-04-13T09:22:45.907Z,17.56
2018-04-13T09:23:48.942Z,17.59
2018-04-13T09:24:52.007Z,17.64
2018-04-13T09:25:55.146Z,17.67
2018-04-13T09:26:58.401Z,17.70
2018-04-13T09:28:01.724Z,17.74
2018-04-13T09:29:04.578Z,17.77
2018-04-13T09:30:08.076Z,17.79
2018-04-13T09:31:11.155Z,17.82
2018-04-13T09:32:14.305Z,17.86
2018-04-13T09:33:17.372Z,17.87
2018-04-13T09:34:20.454Z,17.90
2018-04-13T09:35:23.521Z,17.92
2018-04-13T09:36:26.610Z,17.96
2018-04-13T09:37:29.689Z,18.00
2018-04-13T09:38:32.739Z,18.04
2018-04-13T09:39:35.783Z,18.07
2018-04-13T09:40:38.824Z,18.10
2018-04-13T09:41:41.912Z,18.11
2018-04-13T09:42:45.006Z,18.12
2018-04-13T09:43:48.089Z,18.13
2018-04-13T09:44:51.353Z,18.13
2018-04-13T09:45:55.013Z,18.13
2018-04-13T09:46:58.155Z,18.13
2018-04-13T09:48:01.305Z,18.15
2018-04-13T09:49:04.351Z,18.15
2018-04-13T09:50:07.655Z,18.17
2018-04-13T09:51:10.750Z,18.19
2018-04-13T09:52:13.848Z,18.21
2018-04-13T09:53:16.947Z,18.23
2018-04-13T09:55:29.796Z,18.25
2018-04-13T09:56:33.000Z,18.26
2018-04-13T09:57:36.084Z,18.27
2018-04-13T09:58:39.141Z,18.26
2018-04-13T09:59:42.181Z,18.27
2018-04-13T10:00:45.363Z,18.26
2018-04-13T10:01:48.415Z,18.26
2018-04-13T10:02:57.048Z,18.26
2018-04-13T10:04:14.999Z,18.23
2018-04-13T10:05:18.071Z,18.19
2018-04-13T10:06:21.139Z,18.18
2018-04-13T10:07:24.234Z,18.17
2018-04-13T10:08:27.290Z,18.16
2018-04-13T10:09:30.396Z,18.15
2018-04-13T10:10:33.502Z,18.13
2018-04-13T10:11:36.568Z,18.11
2018-04-13T10:12:40.088Z,18.10
2018-04-13T10:13:43.237Z,18.09
2018-04-13T10:14:46.291Z,18.06
2018-04-13T10:15:49.345Z,18.05
2018-04-13T10:16:52.606Z,18.02
2018-04-13T10:17:55.876Z,18.00
2018-04-13T10:18:58.930Z,17.99
2018-04-13T10:20:02.024Z,17.99
2018-04-13T10:21:05.193Z,17.97
2018-04-13T10:22:08.332Z,17.95
2018-04-13T10:23:11.724Z,17.93
2018-04-13T10:24:14.918Z,17.91
2018-04-13T10:25:18.024Z,17.89
2018-04-13T10:26:21.290Z,17.86
2018-04-13T10:27:24.418Z,17.85
2018-04-13T10:28:27.577Z,17.83
2018-04-13T10:29:30.777Z,17.83
2018-04-13T10:30:33.870Z,17.82
2018-04-13T10:31:36.985Z,17.82
2018-04-13T10:32:40.137Z,17.83
2018-04-13T10:33:43.370Z,17.83
2018-04-13T10:34:46.552Z,17.85
2018-04-13T10:35:49.675Z,17.87
2018-04-13T10:36:52.751Z,17.88
2018-04-13T10:37:55.915Z,17.89
2018-04-13T10:38:58.958Z,17.91
2018-04-13T10:40:02.102Z,17.92
2018-04-13T10:41:05.199Z,17.93
2018-04-13T10:42:08.265Z,17.96
2018-04-13T10:43:11.392Z,17.98
2018-04-13T10:44:14.479Z,18.00
2018-04-13T10:45:17.730Z,18.01
2018-04-13T10:46:20.897Z,18.02
2018-04-13T10:47:23.951Z,18.03
2018-04-13T10:48:26.978Z,18.04
2018-04-13T10:49:30.048Z,18.05
2018-04-13T10:50:33.396Z,18.06
2018-04-13T10:51:36.474Z,18.07
2018-04-13T10:52:39.610Z,18.07
2018-04-13T10:53:42.689Z,18.08
2018-04-13T10:54:47.250Z,18.09
2018-04-13T10:55:50.396Z,18.08
2018-04-13T10:56:53.494Z,18.09
2018-04-13T10:57:56.518Z,18.09
2018-04-13T10:58:59.674Z,18.10
2018-04-13T11:00:02.728Z,18.10
2018-04-13T11:01:05.843Z,18.10
2018-04-13T11:02:08.930Z,18.11
2018-04-13T11:03:11.983Z,18.10
2018-04-13T11:04:15.229Z,18.11
2018-04-13T11:05:18.343Z,18.12
2018-04-13T11:06:21.412Z,18.11
2018-04-13T11:07:24.480Z,18.12
2018-04-13T11:08:27.578Z,18.13
2018-04-13T11:09:30.668Z,18.13
2018-04-13T11:10:33.716Z,18.14
2018-04-13T11:11:36.805Z,18.15
2018-04-13T11:12:39.845Z,18.16
2018-04-13T11:13:42.958Z,18.15
2018-04-13T11:14:46.220Z,18.17
2018-04-13T11:15:49.413Z,18.18
2018-04-13T11:16:52.523Z,18.19
2018-04-13T11:17:55.768Z,18.21
2018-04-13T11:18:58.886Z,18.23
2018-04-13T11:20:01.954Z,18.25
2018-04-13T11:21:05.033Z,18.28
2018-04-13T11:22:08.138Z,18.30
2018-04-13T11:23:11.239Z,18.33
2018-04-13T11:24:14.309Z,18.34
2018-04-13T11:25:17.395Z,18.37
2018-04-13T11:26:20.529Z,18.39
2018-04-13T11:27:23.821Z,18.40
2018-04-13T11:28:26.885Z,18.41
2018-04-13T11:29:29.977Z,18.41
2018-04-13T11:30:33.079Z,18.43
2018-04-13T11:31:36.180Z,18.44
2018-04-13T11:32:39.312Z,18.43
2018-04-13T11:33:42.427Z,18.44
2018-04-13T11:34:45.570Z,18.44
2018-04-13T11:35:48.639Z,18.44
2018-04-13T11:36:51.769Z,18.44
2018-04-13T11:37:54.842Z,18.44
2018-04-13T11:38:57.908Z,18.44
2018-04-13T11:40:00.982Z,18.45
2018-04-13T11:41:04.006Z,18.45
2018-04-13T11:42:07.074Z,18.45
2018-04-13T11:43:10.119Z,18.45
2018-04-13T11:44:13.198Z,18.46
2018-04-13T11:45:16.303Z,18.46
2018-04-13T11:46:19.362Z,18.46
2018-04-13T11:47:22.506Z,18.47
2018-04-13T11:48:25.594Z,18.47
2018-04-13T11:49:28.663Z,18.48
2018-04-13T11:50:31.719Z,18.49
2018-04-13T11:51:34.984Z,18.52
2018-04-13T11:52:38.042Z,18.54
2018-04-13T11:53:41.125Z,18.57
2018-04-13T11:54:44.198Z,18.61
2018-04-13T11:55:47.474Z,18.64
2018-04-13T11:56:50.663Z,18.67
2018-04-13T11:57:53.703Z,18.72
2018-04-13T11:58:56.774Z,18.77
2018-04-13T11:59:59.848Z,18.80
2018-04-13T12:01:02.956Z,18.84
2018-04-13T12:02:06.087Z,18.88
2018-04-13T12:03:09.137Z,18.92
2018-04-13T12:04:12.218Z,18.96
2018-04-13T12:05:15.313Z,18.99
2018-04-13T12:06:18.395Z,19.03
2018-04-13T12:07:21.653Z,19.06
2018-04-13T12:08:24.795Z,19.08
2018-04-13T12:09:27.963Z,19.11
2018-04-13T12:10:31.054Z,19.14
2018-04-13T12:11:34.093Z,19.18
2018-04-13T12:12:37.364Z,19.21
2018-04-13T12:13:40.433Z,19.23
2018-04-13T12:14:43.531Z,19.26
2018-04-13T12:15:46.924Z,19.29
2018-04-13T12:16:50.140Z,19.32
2018-04-13T12:17:53.224Z,19.34
2018-04-13T12:18:56.325Z,19.36
2018-04-13T12:19:59.575Z,19.37
2018-04-13T12:21:02.867Z,19.38
2018-04-13T12:22:06.006Z,19.38
2018-04-13T12:23:09.095Z,19.39
2018-04-13T12:24:12.203Z,19.39
2018-04-13T12:25:15.322Z,19.41
2018-04-13T12:26:18.430Z,19.42
2018-04-13T12:27:21.457Z,19.45
2018-04-13T12:28:24.579Z,19.46
2018-04-13T12:29:27.702Z,19.47
2018-04-13T12:30:30.887Z,19.48
2018-04-13T12:31:33.980Z,19.48
2018-04-13T12:32:37.043Z,19.50
2018-04-13T12:33:40.130Z,19.50
2018-04-13T12:34:43.165Z,19.50
2018-04-13T12:35:46.291Z,19.51
2018-04-13T12:36:49.366Z,19.52
2018-04-13T12:37:52.504Z,19.52
2018-04-13T12:38:55.539Z,19.52
2018-04-13T12:39:58.611Z,19.53
2018-04-13T12:41:01.710Z,19.54
2018-04-13T12:42:04.882Z,19.53
2018-04-13T12:43:07.955Z,19.53
2018-04-13T12:44:11.012Z,19.53
2018-04-13T12:45:14.201Z,19.52
2018-04-13T12:46:17.454Z,19.53
2018-04-13T12:47:20.595Z,19.51
2018-04-13T12:48:23.803Z,19.49
2018-04-13T12:49:26.841Z,19.48
2018-04-13T12:50:29.904Z,19.46
2018-04-13T12:51:33.063Z,19.45
2018-04-13T12:52:36.478Z,19.43
2018-04-13T12:53:39.505Z,19.41
2018-04-13T12:54:42.816Z,19.40
2018-04-13T12:55:45.846Z,19.38
2018-04-13T12:56:49.064Z,19.38
2018-04-13T12:57:52.174Z,19.37
2018-04-13T12:58:55.244Z,19.36
2018-04-13T12:59:58.407Z,19.37
2018-04-13T13:01:01.507Z,19.36
2018-04-13T13:02:04.696Z,19.37
2018-04-13T13:03:07.815Z,19.37
2018-04-13T13:04:10.899Z,19.38
2018-04-13T13:05:14.005Z,19.38
2018-04-13T13:06:17.099Z,19.38
2018-04-13T13:07:20.193Z,19.39
2018-04-13T13:08:23.240Z,19.40
2018-04-13T13:09:26.309Z,19.40
2018-04-13T13:10:29.371Z,19.42
2018-04-13T13:11:32.463Z,19.44
2018-04-13T13:12:35.694Z,19.46
2018-04-13T13:13:38.778Z,19.48
2018-04-13T13:14:42.047Z,19.50
2018-04-13T13:15:45.123Z,19.53
2018-04-13T13:16:48.246Z,19.54
2018-04-13T13:17:51.357Z,19.55
2018-04-13T13:18:54.534Z,19.57
2018-04-13T13:19:57.541Z,19.58
2018-04-13T13:21:00.590Z,19.58
2018-04-13T13:22:03.661Z,19.57
2018-04-13T13:23:06.758Z,19.58
2018-04-13T13:24:09.961Z,19.57
2018-04-13T13:25:12.994Z,19.55
2018-04-13T13:26:16.054Z,19.54
2018-04-13T13:27:19.141Z,19.53
2018-04-13T13:28:22.284Z,19.52
2018-04-13T13:29:25.350Z,19.50
2018-04-13T13:30:28.374Z,19.50
2018-04-13T13:31:31.530Z,19.49
2018-04-13T13:32:34.638Z,19.46
2018-04-13T13:33:37.833Z,19.45
2018-04-13T13:34:40.963Z,19.44
2018-04-13T13:35:44.024Z,19.44
2018-04-13T13:36:47.065Z,19.43